Time;durP1;ratioP1;P1;durP2;ratioP2;P2;SDS_P1;SDS_P2;PMS_P1;PMS_P2;Temp;Humidity;BMP_temperature;BMP_pressure;BME280_temperature;BME280_humidity;BME280_pressure;Samples;Min_cycle;Max_cycle;Signal;HPM_P1;HPM_P2
2021/08/28 00:00:30;;;;;;;3.07;2.43;;;13.90;99.90;;;;;;5070113;28;20489;-69
2021/08/28 00:02:57;;;;;;;6.93;2.40;;;13.90;99.90;;;;;;5070084;28;20838;-69
2021/08/28 00:05:24;;;;;;;2.40;1.90;;;13.90;99.90;;;;;;5070260;28;20977;-69
2021/08/28 00:07:51;;;;;;;3.17;2.27;;;13.80;99.90;;;;;;5069836;28;20555;-68
2021/08/28 00:10:17;;;;;;;2.80;2.60;;;13.80;99.90;;;;;;5070890;28;20461;-68
2021/08/28 00:12:44;;;;;;;3.40;2.40;;;13.80;99.90;;;;;;5073752;28;20823;-68
2021/08/28 00:15:11;;;;;;;4.73;2.33;;;13.80;99.90;;;;;;5073605;28;20454;-68
2021/08/28 00:17:41;;;;;;;3.33;2.70;;;13.80;99.90;;;;;;5073129;28;20835;-68
2021/08/28 00:20:11;;;;;;;3.97;2.80;;;13.80;99.90;;;;;;5073526;28;20462;-68
2021/08/28 00:22:38;;;;;;;5.30;3.13;;;13.90;99.90;;;;;;5073467;28;20482;-68
2021/08/28 00:25:06;;;;;;;6.87;2.47;;;13.80;99.90;;;;;;5073479;28;20458;-68
2021/08/28 00:27:34;;;;;;;2.30;2.10;;;13.80;99.90;;;;;;5073055;28;20932;-68
2021/08/28 00:30:01;;;;;;;3.07;2.87;;;13.80;99.90;;;;;;5073349;28;20509;-68
2021/08/28 00:32:27;;;;;;;2.87;2.20;;;13.80;99.90;;;;;;5073290;28;20454;-68
2021/08/28 00:34:55;;;;;;;3.17;2.33;;;13.80;99.90;;;;;;5073658;28;20469;-68
2021/08/28 00:37:22;;;;;;;3.00;2.07;;;13.80;99.90;;;;;;5072546;28;20489;-69
2021/08/28 00:39:49;;;;;;;2.77;2.50;;;13.80;99.90;;;;;;5073391;28;20462;-68
2021/08/28 00:42:15;;;;;;;2.50;2.30;;;13.80;99.90;;;;;;5072982;28;20478;-68
2021/08/28 00:44:44;;;;;;;4.43;2.40;;;13.80;99.90;;;;;;5073347;28;20454;-69
2021/08/28 00:47:16;;;;;;;3.03;2.70;;;13.80;99.90;;;;;;5072739;28;20986;-68
2021/08/28 00:49:43;;;;;;;3.20;2.90;;;13.80;99.90;;;;;;5073461;28;20520;-69
2021/08/28 00:52:11;;;;;;;3.30;2.80;;;13.70;99.90;;;;;;5073133;28;20462;-68
2021/08/28 00:54:38;;;;;;;2.70;2.50;;;13.70;99.90;;;;;;5073328;28;20928;-69
2021/08/28 00:57:06;;;;;;;2.80;2.60;;;13.70;99.90;;;;;;5072976;28;20549;-68
2021/08/28 00:59:33;;;;;;;2.60;2.40;;;13.70;99.90;;;;;;5072458;28;20812;-68
2021/08/28 01:02:00;;;;;;;3.03;2.47;;;13.70;99.90;;;;;;5072848;28;20513;-68
2021/08/28 01:04:32;;;;;;;3.00;2.50;;;13.70;99.90;;;;;;5072463;28;20481;-68
2021/08/28 01:07:05;;;;;;;9.43;2.93;;;13.70;99.90;;;;;;5072472;28;20478;-68
2021/08/28 01:09:36;;;;;;;3.20;2.63;;;13.70;99.90;;;;;;5071814;28;20459;-69
2021/08/28 01:12:07;;;;;;;6.50;2.80;;;13.70;99.90;;;;;;5072520;28;20458;-68
2021/08/28 01:14:36;;;;;;;2.97;2.67;;;13.70;99.90;;;;;;5072246;28;20463;-68
2021/08/28 01:17:06;;;;;;;3.20;2.90;;;13.70;99.90;;;;;;5072327;28;20855;-68
2021/08/28 01:19:44;;;;;;;2.80;2.50;;;13.60;99.90;;;;;;5071819;28;20470;-68
2021/08/28 01:22:14;;;;;;;4.03;2.57;;;13.60;99.90;;;;;;5071455;28;20481;-68
2021/08/28 01:24:45;;;;;;;3.27;2.33;;;13.60;99.90;;;;;;5072166;28;20454;-69
2021/08/28 01:27:18;;;;;;;3.20;2.90;;;13.50;99.90;;;;;;5071731;28;20892;-68
2021/08/28 01:29:48;;;;;;;2.80;2.60;;;13.50;99.90;;;;;;5072227;28;20836;-68
2021/08/28 01:32:16;;;;;;;3.53;2.60;;;13.60;99.90;;;;;;5072002;28;20509;-68
2021/08/28 01:34:44;;;;;;;2.47;2.27;;;13.50;99.90;;;;;;5072013;28;20498;-68
2021/08/28 01:37:13;;;;;;;3.10;2.40;;;13.60;99.90;;;;;;5071549;28;21022;-68
2021/08/28 01:39:42;;;;;;;4.60;2.27;;;13.60;99.90;;;;;;5071664;28;20466;-68
2021/08/28 01:42:10;;;;;;;3.47;2.50;;;13.60;99.90;;;;;;5072002;28;20552;-68
2021/08/28 01:44:38;;;;;;;2.27;2.07;;;13.50;99.90;;;;;;5071945;28;20699;-69
2021/08/28 01:47:08;;;;;;;4.23;2.60;;;13.60;99.90;;;;;;5071961;28;20482;-68
2021/08/28 01:49:35;;;;;;;4.60;2.20;;;13.50;99.90;;;;;;5071413;28;20454;-69
2021/08/28 01:52:02;;;;;;;4.70;2.63;;;13.60;99.90;;;;;;5071850;28;21027;-68
2021/08/28 01:54:28;;;;;;;2.47;2.03;;;13.50;99.90;;;;;;5071641;28;20466;-69
2021/08/28 01:56:56;;;;;;;2.53;2.33;;;13.50;99.90;;;;;;5071592;28;21009;-68
2021/08/28 01:59:22;;;;;;;3.07;2.50;;;13.60;99.90;;;;;;5071127;28;20458;-68
2021/08/28 02:01:49;;;;;;;5.27;2.50;;;13.50;99.90;;;;;;5071709;28;20490;-68
2021/08/28 02:04:17;;;;;;;3.40;2.27;;;13.50;99.90;;;;;;5071395;28;20466;-68
2021/08/28 02:06:52;;;;;;;4.23;3.07;;;13.50;99.90;;;;;;5071663;28;20774;-68
2021/08/28 02:09:24;;;;;;;5.67;3.10;;;13.50;99.90;;;;;;5070870;28;20470;-67
2021/08/28 02:11:58;;;;;;;4.20;2.80;;;13.50;99.90;;;;;;5071574;28;20466;-68
2021/08/28 02:14:30;;;;;;;3.30;2.80;;;13.50;99.90;;;;;;5071347;28;20506;-68
2021/08/28 02:16:59;;;;;;;3.17;2.63;;;13.50;99.90;;;;;;5071304;28;20485;-67
2021/08/28 02:19:30;;;;;;;3.13;2.47;;;13.50;99.90;;;;;;5070805;28;20462;-68
2021/08/28 02:22:00;;;;;;;4.00;2.80;;;13.50;99.90;;;;;;5071304;28;20479;-68
2021/08/28 02:24:30;;;;;;;4.90;4.00;;;13.50;99.90;;;;;;5070995;28;20462;-69
2021/08/28 02:27:04;;;;;;;2.90;2.60;;;13.50;99.90;;;;;;5070856;28;20485;-68
2021/08/28 02:29:36;;;;;;;3.17;2.87;;;13.50;99.90;;;;;;5070459;28;20477;-68
2021/08/28 02:32:05;;;;;;;4.27;3.20;;;13.50;99.90;;;;;;5077856;22;21034;-92
2021/08/28 02:34:35;;;;;;;3.87;3.53;;;13.50;99.90;;;;;;5051741;28;20483;-92
2021/08/28 02:37:03;;;;;;;6.47;3.70;;;13.50;99.90;;;;;;5052596;28;20547;-92
2021/08/28 02:39:30;;;;;;;3.97;3.57;;;13.50;99.90;;;;;;5052783;28;20459;-92
2021/08/28 02:41:58;;;;;;;4.13;3.83;;;13.40;99.90;;;;;;5053132;28;20491;-93
2021/08/28 02:44:26;;;;;;;3.80;3.40;;;13.40;99.90;;;;;;5053350;28;20459;-94
2021/08/28 02:46:54;;;;;;;5.93;3.70;;;13.50;99.90;;;;;;5053146;28;20460;-93
2021/08/28 02:49:23;;;;;;;4.90;3.97;;;13.40;99.90;;;;;;5052782;28;20494;-92
2021/08/28 02:51:52;;;;;;;4.20;3.70;;;13.40;99.90;;;;;;5056397;28;20483;-93
2021/08/28 02:54:20;;;;;;;7.20;4.80;;;13.40;99.90;;;;;;5060714;28;20470;-92
2021/08/28 02:56:50;;;;;;;4.90;4.13;;;13.40;99.90;;;;;;5053707;28;20451;-92
2021/08/28 02:59:18;;;;;;;5.97;4.60;;;13.40;99.90;;;;;;5052951;28;20465;-93
2021/08/28 03:01:46;;;;;;;4.27;3.83;;;13.40;99.90;;;;;;5052680;28;20475;-93
2021/08/28 03:04:16;;;;;;;4.63;4.20;;;13.40;99.90;;;;;;5052872;28;20459;-92
2021/08/28 03:06:43;;;;;;;4.60;4.20;;;13.40;99.90;;;;;;5052925;28;20459;-93
2021/08/28 03:09:11;;;;;;;5.47;3.93;;;13.40;99.90;;;;;;5052934;28;20475;-93
2021/08/28 03:11:38;;;;;;;3.83;3.53;;;13.40;99.90;;;;;;5052746;28;20491;-93
2021/08/28 03:14:06;;;;;;;4.87;4.30;;;13.40;99.90;;;;;;5052555;28;20467;-92
2021/08/28 03:16:34;;;;;;;5.37;4.57;;;13.40;99.90;;;;;;5052673;28;20452;-93
2021/08/28 03:19:02;;;;;;;5.17;4.53;;;13.50;99.90;;;;;;5052313;28;20467;-94
2021/08/28 03:21:33;;;;;;;5.83;5.00;;;13.40;99.90;;;;;;5052457;28;20487;-93
2021/08/28 03:24:01;;;;;;;5.47;4.73;;;13.40;99.90;;;;;;5052680;28;20464;-94
2021/08/28 03:26:31;;;;;;;8.17;5.40;;;13.40;99.90;;;;;;5052039;28;20460;-93
2021/08/28 03:28:58;;;;;;;7.80;5.13;;;13.40;99.90;;;;;;5052084;28;20513;-93
2021/08/28 03:31:26;;;;;;;8.43;5.87;;;13.40;99.90;;;;;;5052211;28;20493;-92
2021/08/28 03:33:54;;;;;;;6.40;5.80;;;13.40;99.90;;;;;;5051822;28;20459;-93
2021/08/28 03:36:22;;;;;;;6.60;6.00;;;13.40;99.90;;;;;;5052146;28;20456;-93
2021/08/28 03:38:49;;;;;;;6.83;6.23;;;13.50;99.90;;;;;;5051895;28;20459;-93
2021/08/28 03:41:17;;;;;;;6.60;5.83;;;13.50;99.90;;;;;;5051952;28;20483;-92
2021/08/28 03:43:46;;;;;;;7.40;6.67;;;13.40;99.90;;;;;;5051560;28;20485;-92
2021/08/28 03:46:14;;;;;;;14.80;8.60;;;13.40;99.90;;;;;;5054085;28;21043;-93
2021/08/28 03:48:41;;;;;;;9.50;7.30;;;13.40;99.90;;;;;;5055532;28;20470;-92
2021/08/28 03:51:09;;;;;;;8.57;7.73;;;13.40;99.90;;;;;;5056099;28;20512;-93
2021/08/28 03:53:36;;;;;;;8.07;7.27;;;13.40;99.90;;;;;;5055872;28;20459;-92
2021/08/28 03:56:05;;;;;;;9.33;7.90;;;13.40;99.90;;;;;;5055527;28;20463;-92
2021/08/28 03:58:32;;;;;;;9.73;8.27;;;13.40;99.90;;;;;;5055264;28;20471;-92
2021/08/28 04:01:00;;;;;;;13.50;9.03;;;13.40;99.90;;;;;;5056026;28;20483;-93
2021/08/28 04:03:27;;;;;;;11.33;8.60;;;13.40;99.90;;;;;;5055228;28;20482;-93
2021/08/28 04:05:53;;;;;;;11.20;8.90;;;13.40;99.90;;;;;;5055360;28;20466;-92
2021/08/28 04:08:20;;;;;;;13.60;8.60;;;13.40;99.90;;;;;;5055129;28;20836;-93
2021/08/28 04:10:47;;;;;;;13.63;9.33;;;13.40;99.90;;;;;;5055711;28;20483;-93
2021/08/28 04:13:13;;;;;;;12.20;10.00;;;13.40;99.90;;;;;;5055729;28;20470;-92
2021/08/28 04:15:40;;;;;;;14.27;9.97;;;13.40;99.90;;;;;;5055743;28;20828;-92
2021/08/28 04:18:09;;;;;;;9.93;8.80;;;13.40;99.90;;;;;;5055483;28;20463;-92
2021/08/28 04:20:36;;;;;;;11.77;10.43;;;13.40;99.90;;;;;;5055946;28;20510;-92
2021/08/28 04:23:02;;;;;;;12.20;9.00;;;13.40;99.90;;;;;;5055541;28;20475;-93
2021/08/28 04:25:29;;;;;;;10.50;9.40;;;13.40;99.90;;;;;;5056666;28;20463;-92
2021/08/28 04:27:58;;;;;;;11.60;10.40;;;13.40;99.90;;;;;;5055684;28;20455;-93
2021/08/28 04:30:24;;;;;;;10.70;9.50;;;13.40;99.90;;;;;;5055799;28;20279;-92
2021/08/28 04:32:51;;;;;;;10.80;9.70;;;13.40;99.90;;;;;;5055516;28;20469;-91
2021/08/28 04:35:19;;;;;;;14.77;11.07;;;13.40;99.90;;;;;;5054826;28;20463;-92
2021/08/28 04:37:46;;;;;;;10.77;9.57;;;13.40;99.90;;;;;;5054370;28;20466;-92
2021/08/28 04:40:13;;;;;;;11.40;9.93;;;13.40;99.90;;;;;;5054854;28;21022;-92
2021/08/28 04:42:40;;;;;;;11.00;9.90;;;13.40;99.90;;;;;;5055043;28;20487;-92
2021/08/28 04:45:08;;;;;;;11.50;10.13;;;13.50;99.90;;;;;;5055297;28;20471;-93
2021/08/28 04:47:35;;;;;;;13.03;9.83;;;13.40;99.90;;;;;;5054705;28;20953;-92
2021/08/28 04:50:02;;;;;;;11.00;9.47;;;13.40;99.90;;;;;;5054760;28;20554;-91
2021/08/28 04:52:30;;;;;;;13.10;10.80;;;13.40;99.90;;;;;;5055107;28;20460;-91
2021/08/28 04:54:57;;;;;;;12.00;9.20;;;13.40;99.90;;;;;;5054853;28;20815;-91
2021/08/28 04:57:23;;;;;;;11.73;10.40;;;13.40;99.90;;;;;;5053970;28;20467;-91
2021/08/28 04:59:50;;;;;;;10.87;9.63;;;13.40;99.90;;;;;;5055729;28;20471;-91
2021/08/28 05:02:17;;;;;;;12.97;10.83;;;13.40;99.90;;;;;;5056243;28;20456;-92
2021/08/28 05:04:43;;;;;;;12.03;9.97;;;13.40;99.90;;;;;;5056806;28;20471;-92
2021/08/28 05:07:10;;;;;;;11.90;10.33;;;13.40;99.90;;;;;;5055613;28;20474;-92
2021/08/28 05:09:38;;;;;;;13.07;11.47;;;13.40;99.90;;;;;;5054834;28;20803;-91
2021/08/28 05:12:06;;;;;;;11.10;9.87;;;13.40;99.90;;;;;;5054930;28;20480;-91
2021/08/28 05:14:37;;;;;;;12.77;10.03;;;13.40;99.90;;;;;;5054975;28;20463;-91
2021/08/28 05:17:04;;;;;;;16.17;11.73;;;13.30;99.90;;;;;;5054998;28;21003;-91
2021/08/28 05:19:31;;;;;;;11.13;9.93;;;13.40;99.90;;;;;;5056065;28;20471;-92
2021/08/28 05:21:58;;;;;;;10.57;9.50;;;13.40;99.90;;;;;;5057425;28;20570;-92
2021/08/28 05:24:24;;;;;;;10.83;9.73;;;13.40;99.90;;;;;;5055857;28;20482;-92
2021/08/28 05:26:53;;;;;;;13.23;10.70;;;13.30;99.90;;;;;;5059655;28;20459;-92
2021/08/28 05:29:19;;;;;;;13.30;10.93;;;13.40;99.90;;;;;;5058659;28;20466;-91
2021/08/28 05:31:46;;;;;;;18.33;11.60;;;13.40;99.90;;;;;;5055632;28;20522;-92
2021/08/28 05:34:13;;;;;;;11.90;10.70;;;13.40;99.90;;;;;;5057646;28;20466;-92
2021/08/28 05:36:39;;;;;;;14.27;10.80;;;13.40;99.90;;;;;;5054818;28;20832;-91
2021/08/28 05:39:06;;;;;;;13.40;10.17;;;13.40;99.90;;;;;;5054131;28;20475;-91
2021/08/28 05:41:33;;;;;;;13.80;10.37;;;13.40;99.90;;;;;;5054394;28;20491;-91
2021/08/28 05:44:01;;;;;;;10.60;9.40;;;13.40;99.90;;;;;;5054521;28;20602;-91
2021/08/28 05:46:27;;;;;;;12.93;11.63;;;13.40;99.90;;;;;;5055660;28;20463;-91
2021/08/28 05:48:54;;;;;;;13.00;11.70;;;13.40;99.90;;;;;;5056855;28;20459;-91
2021/08/28 05:51:21;;;;;;;13.20;11.77;;;13.40;99.90;;;;;;5056587;28;20484;-91
2021/08/28 05:53:48;;;;;;;13.00;10.67;;;13.40;99.90;;;;;;5056738;28;20462;-92
2021/08/28 05:56:14;;;;;;;10.97;9.77;;;13.40;99.90;;;;;;5056511;28;20482;-91
2021/08/28 05:58:41;;;;;;;12.10;9.77;;;13.40;99.90;;;;;;5056044;28;20460;-91
2021/08/28 06:01:09;;;;;;;11.80;10.57;;;13.40;99.90;;;;;;5057688;28;20506;-91
2021/08/28 06:03:36;;;;;;;13.50;10.57;;;13.40;99.90;;;;;;5057422;28;20490;-91
2021/08/28 06:06:02;;;;;;;12.53;11.17;;;13.40;99.90;;;;;;5057474;28;20929;-91
2021/08/28 06:08:29;;;;;;;12.90;10.63;;;13.40;99.90;;;;;;5054790;28;20470;-92
2021/08/28 06:10:56;;;;;;;11.13;10.03;;;13.40;99.90;;;;;;5058506;28;20479;-92
2021/08/28 06:13:22;;;;;;;15.17;10.83;;;13.50;99.90;;;;;;5060689;28;20455;-92
2021/08/28 06:15:49;;;;;;;11.60;9.13;;;13.50;99.90;;;;;;5056224;28;20456;-93
2021/08/28 06:18:17;;;;;;;11.37;10.20;;;13.50;99.90;;;;;;5057425;28;20952;-91
2021/08/28 06:20:44;;;;;;;14.20;11.20;;;13.50;99.90;;;;;;5052556;28;20483;-91
2021/08/28 06:23:11;;;;;;;11.90;9.53;;;13.40;99.90;;;;;;5052436;28;20475;-91
2021/08/28 06:25:37;;;;;;;10.80;9.73;;;13.40;99.90;;;;;;5052489;28;20463;-91
2021/08/28 06:28:04;;;;;;;10.90;9.70;;;13.40;99.90;;;;;;5052043;28;20460;-92
2021/08/28 06:30:31;;;;;;;10.57;9.50;;;13.40;99.90;;;;;;5052284;28;20881;-91
2021/08/28 06:32:58;;;;;;;11.57;10.40;;;13.40;99.90;;;;;;5052471;28;20464;-91
2021/08/28 06:35:26;;;;;;;10.60;9.30;;;13.40;99.90;;;;;;5052244;28;21091;-91
2021/08/28 06:37:53;;;;;;;8.33;7.53;;;13.50;99.90;;;;;;5052466;28;20447;-91
2021/08/28 06:40:19;;;;;;;9.70;8.70;;;13.50;99.90;;;;;;5053355;28;20874;-91
2021/08/28 06:42:47;;;;;;;12.77;9.50;;;13.50;99.90;;;;;;5052173;28;20463;-92
2021/08/28 06:45:13;;;;;;;9.87;8.50;;;13.60;99.90;;;;;;5052671;28;20889;-91
2021/08/28 06:47:40;;;;;;;10.37;9.30;;;13.60;99.90;;;;;;5051946;28;20822;-91
2021/08/28 06:50:08;;;;;;;10.77;9.03;;;13.60;99.90;;;;;;5052032;28;20462;-91
2021/08/28 06:52:36;;;;;;;10.33;9.10;;;13.70;99.90;;;;;;5052093;28;20513;-92
2021/08/28 06:55:03;;;;;;;11.43;9.33;;;13.70;99.90;;;;;;5052116;28;20467;-91
2021/08/28 06:57:30;;;;;;;10.50;8.93;;;13.70;99.90;;;;;;5051520;28;20463;-91
2021/08/28 06:59:57;;;;;;;10.60;9.50;;;13.70;99.90;;;;;;5051898;28;20471;-91
2021/08/28 07:02:24;;;;;;;9.57;8.60;;;13.70;99.90;;;;;;5051803;28;20550;-91
2021/08/28 07:04:51;;;;;;;8.90;8.00;;;13.70;99.90;;;;;;5051748;28;20483;-91
2021/08/28 07:07:18;;;;;;;10.63;9.17;;;13.70;99.90;;;;;;5051877;28;20456;-93
2021/08/28 07:09:46;;;;;;;10.40;8.07;;;13.80;99.90;;;;;;5052545;28;20470;-92
2021/08/28 07:12:13;;;;;;;8.90;8.00;;;13.90;99.90;;;;;;5052185;28;20482;-93
2021/08/28 07:14:42;;;;;;;9.13;8.20;;;14.00;99.90;;;;;;5052381;28;20474;-92
2021/08/28 07:17:09;;;;;;;9.10;8.20;;;14.20;99.90;;;;;;5052253;28;20470;-92
2021/08/28 07:19:35;;;;;;;8.27;7.40;;;14.30;99.90;;;;;;5052372;28;20495;-92
2021/08/28 07:22:02;;;;;;;7.10;6.50;;;14.40;99.90;;;;;;5055903;28;20905;-92
2021/08/28 07:24:29;;;;;;;7.17;6.37;;;14.50;99.90;;;;;;5054181;28;20483;-92
2021/08/28 07:26:57;;;;;;;7.10;6.23;;;14.70;99.90;;;;;;5055947;28;20816;-91
2021/08/28 07:29:24;;;;;;;6.67;6.10;;;14.80;99.90;;;;;;5055623;28;20466;-92
2021/08/28 07:31:50;;;;;;;6.47;5.67;;;14.90;99.90;;;;;;5056477;28;20904;-93
2021/08/28 07:34:17;;;;;;;6.27;5.77;;;15.10;99.90;;;;;;5055911;28;20455;-93
2021/08/28 07:36:44;;;;;;;6.77;5.17;;;15.10;99.90;;;;;;5055791;28;20455;-92
2021/08/28 07:39:11;;;;;;;6.53;4.67;;;15.10;99.90;;;;;;5055085;28;20975;-92
2021/08/28 07:41:37;;;;;;;4.13;3.73;;;15.10;99.90;;;;;;5056324;28;20494;-93
2021/08/28 07:44:06;;;;;;;5.70;4.07;;;15.20;99.90;;;;;;5055522;28;20999;-92
2021/08/28 07:46:33;;;;;;;4.60;4.30;;;15.30;99.90;;;;;;5055255;28;20466;-93
2021/08/28 07:49:00;;;;;;;4.97;4.47;;;15.30;99.90;;;;;;5055043;28;20463;-93
2021/08/28 07:51:26;;;;;;;4.83;4.33;;;15.40;99.90;;;;;;5055454;28;20490;-92
2021/08/28 07:53:53;;;;;;;4.23;3.83;;;15.40;99.90;;;;;;5055103;28;20466;-92
2021/08/28 07:56:20;;;;;;;3.57;3.27;;;15.40;99.90;;;;;;5055096;28;20470;-92
2021/08/28 07:58:46;;;;;;;3.83;3.53;;;15.50;99.90;;;;;;5055499;28;20464;-91
2021/08/28 08:01:14;;;;;;;3.60;3.30;;;15.50;99.90;;;;;;5054584;28;20997;-92
2021/08/28 08:03:41;;;;;;;4.13;3.73;;;15.60;99.90;;;;;;5054687;28;20471;-92
2021/08/28 08:06:08;;;;;;;4.70;4.30;;;15.60;99.90;;;;;;5054710;28;20987;-92
2021/08/28 08:08:35;;;;;;;4.00;3.60;;;15.50;99.90;;;;;;5054940;28;20849;-92
2021/08/28 08:11:02;;;;;;;5.03;4.63;;;15.40;99.90;;;;;;5054651;28;20479;-92
2021/08/28 08:13:28;;;;;;;3.03;2.83;;;15.20;99.90;;;;;;5054856;28;21424;-92
2021/08/28 08:15:55;;;;;;;3.60;3.30;;;15.10;99.90;;;;;;5055055;28;20451;-91
2021/08/28 08:18:23;;;;;;;5.60;3.50;;;15.00;99.90;;;;;;5054322;28;20455;-92
2021/08/28 08:20:50;;;;;;;4.03;3.30;;;14.90;99.90;;;;;;5054436;28;20490;-92
2021/08/28 08:23:17;;;;;;;3.40;3.13;;;14.80;99.90;;;;;;5054170;28;20941;-92
2021/08/28 08:25:44;;;;;;;3.37;3.07;;;14.80;99.90;;;;;;5054087;28;20467;-92
2021/08/28 08:28:10;;;;;;;3.93;3.53;;;14.80;99.90;;;;;;5054645;28;20459;-91
2021/08/28 08:30:37;;;;;;;5.10;3.90;;;14.80;99.90;;;;;;5051984;28;20497;-89
2021/08/28 08:33:04;;;;;;;3.90;3.43;;;14.80;99.90;;;;;;5050696;28;20482;-90
2021/08/28 08:35:32;;;;;;;4.50;4.10;;;14.80;99.90;;;;;;5051549;28;20852;-90
2021/08/28 08:38:00;;;;;;;3.93;3.63;;;14.80;99.90;;;;;;5050245;28;20467;-90
2021/08/28 08:40:27;;;;;;;4.20;3.50;;;14.80;99.90;;;;;;5051592;28;20896;-90
2021/08/28 08:42:56;;;;;;;5.77;3.40;;;14.80;99.90;;;;;;5050799;28;20547;-90
2021/08/28 08:45:24;;;;;;;4.53;3.67;;;14.70;99.90;;;;;;5051009;28;20574;-89
2021/08/28 08:47:52;;;;;;;3.50;3.20;;;14.70;99.90;;;;;;5051073;28;20474;-89
2021/08/28 08:50:19;;;;;;;4.23;3.43;;;14.70;99.90;;;;;;5051013;28;20487;-89
2021/08/28 08:52:53;;;;;;;3.43;3.13;;;14.70;99.90;;;;;;5050774;28;20463;-89
2021/08/28 08:55:20;;;;;;;4.33;3.40;;;14.70;99.90;;;;;;5050731;28;20456;-89
2021/08/28 08:57:48;;;;;;;5.20;3.27;;;14.60;99.90;;;;;;5050344;28;20976;-90
2021/08/28 09:00:16;;;;;;;3.17;2.77;;;14.60;99.90;;;;;;5050673;28;20491;-89
2021/08/28 09:02:43;;;;;;;3.30;3.00;;;14.60;99.90;;;;;;5051665;28;20463;-89
2021/08/28 09:05:10;;;;;;;2.80;2.60;;;14.60;99.90;;;;;;5051167;28;20497;-89
2021/08/28 09:07:38;;;;;;;3.50;2.93;;;14.50;99.90;;;;;;5051731;28;20477;-90
2021/08/28 09:10:06;;;;;;;4.90;2.97;;;14.50;99.90;;;;;;5050681;28;20899;-89
2021/08/28 09:12:37;;;;;;;3.50;3.00;;;14.50;99.90;;;;;;5050504;28;20454;-90
2021/08/28 09:15:05;;;;;;;4.33;2.63;;;14.50;99.90;;;;;;5050290;28;20551;-89
2021/08/28 09:17:32;;;;;;;2.83;2.53;;;14.50;99.90;;;;;;5050254;28;20474;-90
2021/08/28 09:20:01;;;;;;;2.77;2.57;;;14.50;99.90;;;;;;5052881;28;20467;-91
2021/08/28 09:22:29;;;;;;;6.80;3.17;;;14.60;99.90;;;;;;5049845;28;20459;-89
2021/08/28 09:24:59;;;;;;;4.67;4.20;;;14.70;99.90;;;;;;5053267;28;20514;-89
2021/08/28 09:27:36;;;;;;;4.53;3.97;;;14.70;99.90;;;;;;5053474;28;20459;-89
2021/08/28 09:30:14;;;;;;;5.00;3.33;;;14.70;99.90;;;;;;5052974;28;20463;-89
2021/08/28 09:32:46;;;;;;;3.60;3.30;;;14.80;99.90;;;;;;5053098;28;20447;-89
2021/08/28 09:35:13;;;;;;;3.50;3.20;;;14.80;99.90;;;;;;5053916;28;20494;-90
2021/08/28 09:37:42;;;;;;;4.40;3.00;;;14.80;99.90;;;;;;5053525;28;20463;-89
2021/08/28 09:40:09;;;;;;;2.90;2.60;;;14.70;99.90;;;;;;5057262;28;20482;-92
2021/08/28 09:42:39;;;;;;;2.70;2.50;;;14.70;99.90;;;;;;5052628;28;20456;-89
2021/08/28 09:45:10;;;;;;;2.80;2.23;;;14.70;99.90;;;;;;5053336;28;20495;-89
2021/08/28 09:47:37;;;;;;;2.83;2.40;;;14.70;99.90;;;;;;5052963;28;20464;-89
2021/08/28 09:50:04;;;;;;;2.27;2.07;;;14.70;99.90;;;;;;5053090;28;21068;-90
2021/08/28 09:52:32;;;;;;;2.33;2.13;;;14.70;99.90;;;;;;5052921;28;20961;-90
2021/08/28 09:54:58;;;;;;;2.30;2.20;;;14.70;99.90;;;;;;5053448;28;20466;-89
2021/08/28 09:57:28;;;;;;;2.40;2.20;;;14.70;99.90;;;;;;5051378;28;20458;-90
2021/08/28 09:59:59;;;;;;;2.67;2.43;;;14.60;99.90;;;;;;5033413;28;20464;-89
2021/08/28 10:02:26;;;;;;;2.50;2.30;;;14.60;99.90;;;;;;5050195;28;20459;-89
2021/08/28 10:04:58;;;;;;;2.10;2.00;;;14.50;99.90;;;;;;5053430;28;20499;-90
2021/08/28 10:07:26;;;;;;;2.50;2.30;;;14.50;99.90;;;;;;5054047;28;20464;-89
2021/08/28 10:09:57;;;;;;;3.17;2.40;;;14.50;99.90;;;;;;5053330;28;20553;-90
2021/08/28 10:12:25;;;;;;;3.57;2.57;;;14.50;99.90;;;;;;5054478;28;20463;-91
2021/08/28 10:14:54;;;;;;;3.40;2.50;;;14.50;99.90;;;;;;5054389;28;20455;-90
2021/08/28 10:17:24;;;;;;;2.57;2.37;;;14.50;99.90;;;;;;5054511;28;20986;-89
2021/08/28 10:19:54;;;;;;;3.20;2.87;;;14.40;99.90;;;;;;5054095;28;20506;-89
2021/08/28 10:22:23;;;;;;;3.27;2.70;;;14.40;99.90;;;;;;5054312;28;20491;-90
2021/08/28 10:24:53;;;;;;;2.93;2.70;;;14.40;99.90;;;;;;5054461;28;20521;-90
2021/08/28 10:27:21;;;;;;;3.10;2.90;;;14.40;99.90;;;;;;5054446;28;20451;-90
2021/08/28 10:29:49;;;;;;;3.87;3.00;;;14.30;99.90;;;;;;5053768;28;20455;-92
2021/08/28 10:32:16;;;;;;;3.00;2.80;;;14.40;99.90;;;;;;5054357;28;20486;-92
2021/08/28 10:34:44;;;;;;;9.00;3.60;;;14.40;99.90;;;;;;5055799;28;20460;-91
2021/08/28 10:37:11;;;;;;;4.30;3.10;;;14.40;99.90;;;;;;5055412;28;20459;-90
2021/08/28 10:39:39;;;;;;;2.87;2.40;;;14.30;99.90;;;;;;5053532;28;20466;-90
2021/08/28 10:42:08;;;;;;;2.67;2.47;;;14.30;99.90;;;;;;5053286;28;20476;-90
2021/08/28 10:44:35;;;;;;;3.23;3.03;;;14.20;99.90;;;;;;5054198;28;20507;-90
2021/08/28 10:47:05;;;;;;;3.20;2.83;;;14.20;99.90;;;;;;5054596;28;20879;-90
2021/08/28 10:49:32;;;;;;;3.00;2.50;;;14.30;99.90;;;;;;5055362;28;20467;-90
2021/08/28 10:52:02;;;;;;;5.30;2.60;;;14.30;99.90;;;;;;5056551;28;20483;-89
2021/08/28 10:54:30;;;;;;;2.67;2.47;;;14.30;99.90;;;;;;5054292;28;20546;-89
2021/08/28 10:57:01;;;;;;;3.20;3.00;;;14.30;99.90;;;;;;5053229;28;20481;-90
2021/08/28 10:59:30;;;;;;;3.00;2.33;;;14.40;99.90;;;;;;5052037;28;20806;-90
2021/08/28 11:04:44;;;;;;;3.13;2.50;;;14.50;99.90;;;;;;5053239;28;20482;-90
2021/08/28 11:07:26;;;;;;;2.77;2.50;;;14.60;99.90;;;;;;5052629;28;20813;-91
2021/08/28 11:10:14;;;;;;;3.40;3.20;;;14.70;99.90;;;;;;5052690;28;20813;-90
2021/08/28 11:12:59;;;;;;;3.40;3.10;;;14.80;99.90;;;;;;5052458;28;20454;-90
2021/08/28 11:15:53;;;;;;;2.60;2.40;;;14.90;99.90;;;;;;5052098;28;20509;-90
2021/08/28 11:18:45;;;;;;;3.10;2.80;;;14.90;99.90;;;;;;5051919;28;20459;-90
2021/08/28 11:21:14;;;;;;;3.20;3.00;;;15.00;99.90;;;;;;5052418;28;20475;-90
2021/08/28 11:23:45;;;;;;;3.07;2.87;;;15.00;99.90;;;;;;5052339;28;20451;-90
2021/08/28 11:26:12;;;;;;;2.57;2.37;;;15.00;99.90;;;;;;5052580;28;20480;-89
2021/08/28 11:28:42;;;;;;;2.63;2.43;;;15.00;99.90;;;;;;5052069;28;20512;-90
2021/08/28 11:31:09;;;;;;;2.67;2.47;;;15.00;99.90;;;;;;5052006;28;20487;-90
2021/08/28 11:33:38;;;;;;;2.60;2.40;;;15.00;99.90;;;;;;5051582;28;20467;-90
2021/08/28 11:36:06;;;;;;;2.50;2.30;;;15.00;99.90;;;;;;5051706;28;20452;-90
2021/08/28 11:38:47;;;;;;;2.80;2.50;;;15.00;99.90;;;;;;5051425;28;20471;-91
2021/08/28 11:41:18;;;;;;;3.10;2.53;;;15.00;99.90;;;;;;5051481;28;20481;-90
2021/08/28 11:43:45;;;;;;;2.30;2.10;;;15.00;99.90;;;;;;5051581;28;20493;-90
2021/08/28 11:46:14;;;;;;;2.60;1.87;;;15.00;99.90;;;;;;5052095;28;20472;-89
2021/08/28 11:48:43;;;;;;;2.60;1.80;;;15.00;99.90;;;;;;5050918;28;20463;-91
2021/08/28 11:51:13;;;;;;;3.10;2.20;;;15.10;99.90;;;;;;5051818;28;20984;-90
2021/08/28 11:53:41;;;;;;;2.13;1.93;;;15.10;99.90;;;;;;5051596;28;20829;-90
2021/08/28 11:56:12;;;;;;;2.07;1.97;;;15.00;99.90;;;;;;5051463;28;20463;-91
2021/08/28 11:58:54;;;;;;;3.10;2.03;;;15.10;99.90;;;;;;5051274;28;20490;-91
2021/08/28 12:01:29;;;;;;;2.60;2.17;;;15.10;99.90;;;;;;5054547;28;20578;-91
2021/08/28 12:03:58;;;;;;;2.57;2.33;;;15.10;99.90;;;;;;5059489;28;20451;-91
2021/08/28 12:06:26;;;;;;;3.20;2.33;;;15.20;99.90;;;;;;5059396;28;20532;-91
2021/08/28 12:08:53;;;;;;;2.67;2.20;;;15.20;99.90;;;;;;5061096;28;20491;-91
2021/08/28 12:11:21;;;;;;;2.40;2.20;;;15.20;99.90;;;;;;5055335;28;20992;-91
2021/08/28 12:13:49;;;;;;;3.27;2.93;;;15.30;99.90;;;;;;5054869;28;20956;-91
2021/08/28 12:16:23;;;;;;;1.97;1.87;;;15.40;99.90;;;;;;5052450;28;20961;-90
2021/08/28 12:19:05;;;;;;;2.40;2.20;;;15.40;99.90;;;;;;5055021;28;21009;-91
2021/08/28 12:21:38;;;;;;;2.30;2.10;;;15.50;99.90;;;;;;5055075;28;20945;-91
2021/08/28 12:24:14;;;;;;;2.27;2.07;;;15.60;99.90;;;;;;5054837;28;20459;-91
2021/08/28 12:26:43;;;;;;;2.47;2.27;;;15.70;99.90;;;;;;5054767;28;20506;-91
2021/08/28 12:29:10;;;;;;;2.53;2.33;;;15.90;99.90;;;;;;5055125;28;20459;-91
2021/08/28 12:31:37;;;;;;;2.30;2.10;;;16.20;99.90;;;;;;5054550;28;20494;-91
2021/08/28 12:36:34;;;;;;;2.33;2.13;;;16.90;99.90;;;;;;5117778;22;20487;-70
2021/08/28 12:39:03;;;;;;;2.10;1.90;;;17.10;99.90;;;;;;5051834;28;21001;-70
2021/08/28 12:41:30;;;;;;;1.90;1.53;;;17.20;99.90;;;;;;5052538;28;20486;-70
2021/08/28 12:43:58;;;;;;;1.80;1.70;;;17.10;99.90;;;;;;5052174;28;20823;-70
2021/08/28 12:46:25;;;;;;;1.80;1.50;;;17.10;99.90;;;;;;5052364;28;20889;-70
2021/08/28 12:49:09;;;;;;;2.20;2.00;;;17.10;99.90;;;;;;5052121;28;20459;-70
2021/08/28 12:51:36;;;;;;;1.67;1.57;;;17.10;99.90;;;;;;5052407;28;20978;-71
2021/08/28 12:54:04;;;;;;;1.80;1.70;;;17.20;99.90;;;;;;5052097;28;20466;-70